createdAt,value
2017-10-05T00:00:06.365Z,1005.7
2017-10-05T00:00:46.929Z,1005.79
2017-10-05T00:01:27.526Z,1005.71
2017-10-05T00:02:08.087Z,1005.72
2017-10-05T00:02:48.681Z,1005.76
2017-10-05T00:03:29.284Z,1005.8
2017-10-05T00:04:09.892Z,1005.8
2017-10-05T00:04:50.489Z,1005.68
2017-10-05T00:05:31.062Z,1005.74
2017-10-05T00:06:11.614Z,1005.67
2017-10-05T00:06:52.185Z,1005.72
2017-10-05T00:07:32.760Z,1005.7
2017-10-05T00:08:13.339Z,1005.77
2017-10-05T00:08:53.918Z,1005.72
2017-10-05T00:09:34.481Z,1005.69
2017-10-05T00:10:15.064Z,1005.66
2017-10-05T00:10:55.626Z,1005.62
2017-10-05T00:11:36.207Z,1005.62
2017-10-05T00:12:16.791Z,1005.58
2017-10-05T00:12:57.380Z,1005.53
2017-10-05T00:13:37.999Z,1005.6
2017-10-05T00:14:18.585Z,1005.52
2017-10-05T00:14:59.170Z,1005.6
2017-10-05T00:15:39.776Z,1005.66
2017-10-05T00:16:20.368Z,1005.56
2017-10-05T00:17:01.056Z,1005.61
2017-10-05T00:17:41.630Z,1005.6
2017-10-05T00:18:22.222Z,1005.61
2017-10-05T00:19:02.814Z,1005.57
2017-10-05T00:19:43.419Z,1005.59
2017-10-05T00:20:24.000Z,1005.55
2017-10-05T00:21:04.606Z,1005.52
2017-10-05T00:21:45.172Z,1005.54
2017-10-05T00:22:25.760Z,1005.51
2017-10-05T00:23:06.316Z,1005.47
2017-10-05T00:23:46.899Z,1005.52
2017-10-05T00:24:27.456Z,1005.55
2017-10-05T00:25:08.041Z,1005.56
2017-10-05T00:25:48.619Z,1005.47
2017-10-05T00:26:29.176Z,1005.51
2017-10-05T00:27:09.737Z,1005.51
2017-10-05T00:27:50.296Z,1005.51
2017-10-05T00:29:47.987Z,1005.47
2017-10-05T00:30:28.556Z,1005.46
2017-10-05T00:31:09.124Z,1005.43
2017-10-05T00:31:49.735Z,1005.44
2017-10-05T00:32:30.339Z,1005.46
2017-10-05T00:33:10.911Z,1005.49
2017-10-05T00:33:51.493Z,1005.43
2017-10-05T00:34:32.105Z,1005.4
2017-10-05T00:35:12.702Z,1005.39
2017-10-05T00:35:54.137Z,1005.34
2017-10-05T00:36:34.838Z,1005.32
2017-10-05T00:37:15.546Z,1005.29
2017-10-05T00:37:56.113Z,1005.27
2017-10-05T00:38:36.694Z,1005.35
2017-10-05T00:39:17.306Z,1005.36
2017-10-05T00:39:57.907Z,1005.36
2017-10-05T00:40:38.486Z,1005.36
2017-10-05T00:41:19.113Z,1005.37
2017-10-05T00:41:59.740Z,1005.3
2017-10-05T00:42:40.335Z,1005.29
2017-10-05T00:43:20.914Z,1005.31
2017-10-05T00:44:01.506Z,1005.26
2017-10-05T00:44:42.082Z,1005.29
2017-10-05T00:45:22.688Z,1005.23
2017-10-05T00:46:03.266Z,1005.27
2017-10-05T00:46:43.824Z,1005.22
2017-10-05T00:47:24.424Z,1005.29
2017-10-05T00:48:05.016Z,1005.38
2017-10-05T00:48:45.610Z,1005.33
2017-10-05T00:49:26.235Z,1005.34
2017-10-05T00:50:06.826Z,1005.35
2017-10-05T00:50:47.423Z,1005.32
2017-10-05T00:51:27.993Z,1005.3
2017-10-05T00:52:08.588Z,1005.3
2017-10-05T00:52:49.183Z,1005.33
2017-10-05T00:53:29.767Z,1005.35
2017-10-05T00:54:10.334Z,1005.28
2017-10-05T00:54:50.936Z,1005.26
2017-10-05T00:55:31.511Z,1005.27
2017-10-05T00:56:12.085Z,1005.27
2017-10-05T00:56:52.681Z,1005.29
2017-10-05T00:57:33.253Z,1005.34
2017-10-05T00:58:13.845Z,1005.31
2017-10-05T00:58:54.414Z,1005.35
2017-10-05T00:59:35.012Z,1005.4
2017-10-05T01:00:15.589Z,1005.4
2017-10-05T01:00:56.165Z,1005.36
2017-10-05T01:01:36.742Z,1005.34
2017-10-05T01:02:17.356Z,1005.29
2017-10-05T01:02:57.973Z,1005.3
2017-10-05T01:03:38.578Z,1005.28
2017-10-05T01:04:19.163Z,1005.25
2017-10-05T01:04:59.776Z,1005.21
2017-10-05T01:05:40.410Z,1005.21
2017-10-05T01:06:21.037Z,1005.15
2017-10-05T01:07:01.619Z,1005.16
2017-10-05T01:07:42.244Z,1005.13
2017-10-05T01:08:22.828Z,1005.07
2017-10-05T01:09:03.433Z,1005.01
2017-10-05T01:09:44.053Z,1005.02
2017-10-05T01:10:24.633Z,1004.97
2017-10-05T01:11:05.227Z,1005.02
2017-10-05T01:11:45.838Z,1004.91
2017-10-05T01:12:26.432Z,1004.94
2017-10-05T01:13:07.092Z,1004.93
2017-10-05T01:13:47.707Z,1004.85
2017-10-05T01:14:28.290Z,1004.83
2017-10-05T01:15:08.857Z,1004.88
2017-10-05T01:15:49.483Z,1004.83
2017-10-05T01:16:30.045Z,1004.81
2017-10-05T01:17:10.693Z,1004.81
2017-10-05T01:17:51.238Z,1004.86
2017-10-05T01:18:31.873Z,1004.81
2017-10-05T01:19:12.480Z,1004.84
2017-10-05T01:19:53.058Z,1004.87
2017-10-05T01:20:33.677Z,1004.84
2017-10-05T01:21:14.230Z,1004.84
2017-10-05T01:21:54.843Z,1004.8
2017-10-05T01:22:35.408Z,1004.77
2017-10-05T01:23:16.033Z,1004.73
2017-10-05T01:23:56.612Z,1004.76
2017-10-05T01:24:37.181Z,1004.74
2017-10-05T01:25:17.784Z,1004.77
2017-10-05T01:25:58.377Z,1004.79
2017-10-05T01:26:38.939Z,1004.74
2017-10-05T01:27:19.523Z,1004.76
2017-10-05T01:28:00.111Z,1004.71
2017-10-05T01:28:40.692Z,1004.66
2017-10-05T01:29:21.283Z,1004.66
2017-10-05T01:30:01.887Z,1004.57
2017-10-05T01:30:42.458Z,1004.54
2017-10-05T01:31:23.074Z,1004.49
2017-10-05T01:32:03.653Z,1004.48
2017-10-05T01:32:44.240Z,1004.46
2017-10-05T01:33:24.830Z,1004.47
2017-10-05T01:34:05.427Z,1004.44
2017-10-05T01:34:46.010Z,1004.42
2017-10-05T01:35:26.619Z,1004.33
2017-10-05T01:36:07.271Z,1004.38
2017-10-05T01:36:47.856Z,1004.31
2017-10-05T01:37:28.436Z,1004.32
2017-10-05T01:38:09.019Z,1004.29
2017-10-05T01:38:49.641Z,1004.3
2017-10-05T01:39:30.239Z,1004.25
2017-10-05T01:40:10.854Z,1004.34
2017-10-05T01:40:51.437Z,1004.35
2017-10-05T01:41:32.010Z,1004.33
2017-10-05T01:42:12.605Z,1004.2
2017-10-05T01:42:53.220Z,1004.21
2017-10-05T01:43:33.839Z,1004.21
2017-10-05T01:44:14.420Z,1004.15
2017-10-05T01:44:55.003Z,1004.17
2017-10-05T01:45:35.622Z,1004.11
2017-10-05T01:46:16.151Z,1004.24
2017-10-05T01:46:56.721Z,1004.13
2017-10-05T01:47:37.325Z,1004.15
2017-10-05T01:48:17.980Z,1004.15
2017-10-05T01:48:58.490Z,1004.12
2017-10-05T01:49:39.068Z,1004.06
2017-10-05T01:50:19.695Z,1004.09
2017-10-05T01:51:00.290Z,1004.08
2017-10-05T01:51:40.877Z,1004
2017-10-05T01:52:21.477Z,1004.08
2017-10-05T01:53:02.081Z,1003.96
2017-10-05T01:53:42.668Z,1004
2017-10-05T01:54:23.237Z,1003.98
2017-10-05T01:55:03.823Z,1004.03
2017-10-05T01:55:44.396Z,1004.02
2017-10-05T01:56:24.994Z,1004
2017-10-05T01:57:05.567Z,1003.94
2017-10-05T01:57:46.148Z,1004.02
2017-10-05T01:58:26.733Z,1004.09
2017-10-05T01:59:07.365Z,1004.11
2017-10-05T01:59:47.946Z,1004.13
2017-10-05T02:00:28.575Z,1004.2
2017-10-05T02:01:09.168Z,1004.15
2017-10-05T02:01:49.765Z,1004.13
2017-10-05T02:02:30.353Z,1004.06
2017-10-05T02:03:11.007Z,1004.08
2017-10-05T02:03:51.582Z,1004.07
2017-10-05T02:04:32.175Z,1004.02
2017-10-05T02:05:12.778Z,1004.04
2017-10-05T02:05:53.353Z,1003.83
2017-10-05T02:06:33.924Z,1003.8
2017-10-05T02:07:14.547Z,1003.73
2017-10-05T02:07:55.138Z,1003.81
2017-10-05T02:08:35.821Z,1003.93
2017-10-05T02:09:16.447Z,1003.98
2017-10-05T02:09:57.019Z,1003.97
2017-10-05T02:10:37.648Z,1004
2017-10-05T02:11:18.258Z,1003.94
2017-10-05T02:11:58.846Z,1003.89
2017-10-05T02:12:39.437Z,1003.92
2017-10-05T02:13:20.056Z,1003.94
2017-10-05T02:14:00.657Z,1003.92
2017-10-05T02:14:41.252Z,1003.85
2017-10-05T02:15:21.873Z,1003.8
2017-10-05T02:16:02.452Z,1003.73
2017-10-05T02:16:43.130Z,1003.81
2017-10-05T02:17:23.732Z,1003.78
2017-10-05T02:18:04.310Z,1003.83
2017-10-05T02:18:44.875Z,1003.85
2017-10-05T02:19:25.444Z,1003.89
2017-10-05T02:20:06.037Z,1003.82
2017-10-05T02:20:46.625Z,1003.81
2017-10-05T02:21:27.233Z,1003.82
2017-10-05T02:22:07.811Z,1003.74
2017-10-05T02:22:48.409Z,1003.7
2017-10-05T02:23:28.995Z,1003.71
2017-10-05T02:24:09.608Z,1003.72
2017-10-05T02:24:50.190Z,1003.66
2017-10-05T02:25:30.775Z,1003.64
2017-10-05T02:26:11.373Z,1003.62
2017-10-05T02:26:51.961Z,1003.64
2017-10-05T02:27:32.564Z,1003.59
2017-10-05T02:28:13.164Z,1003.61
2017-10-05T02:28:53.767Z,1003.63
2017-10-05T02:29:34.374Z,1003.7
2017-10-05T02:30:14.944Z,1003.69
2017-10-05T02:30:55.786Z,1003.73
2017-10-05T02:31:36.373Z,1003.75
2017-10-05T02:32:16.944Z,1003.73
2017-10-05T02:32:57.559Z,1003.67
2017-10-05T02:33:38.390Z,1003.57
2017-10-05T02:34:19.025Z,1003.53
2017-10-05T02:34:59.627Z,1003.51
2017-10-05T02:35:40.203Z,1003.6
2017-10-05T02:36:20.778Z,1003.62
2017-10-05T02:37:01.388Z,1003.61
2017-10-05T02:37:41.974Z,1003.56
2017-10-05T02:38:22.567Z,1003.6
2017-10-05T02:39:03.151Z,1003.62
2017-10-05T02:39:43.883Z,1003.62
2017-10-05T02:40:24.464Z,1003.64
2017-10-05T02:41:05.046Z,1003.58
2017-10-05T02:41:45.640Z,1003.51
2017-10-05T02:42:26.231Z,1003.55
2017-10-05T02:43:07.058Z,1003.54
2017-10-05T02:43:47.617Z,1003.62
2017-10-05T02:44:28.202Z,1003.54
2017-10-05T02:45:08.786Z,1003.6
2017-10-05T02:45:49.360Z,1003.63
2017-10-05T02:46:29.930Z,1003.66
2017-10-05T02:47:10.513Z,1003.54
2017-10-05T02:47:51.070Z,1003.5
2017-10-05T02:48:31.655Z,1003.55
2017-10-05T02:49:12.215Z,1003.48
2017-10-05T02:49:52.785Z,1003.52
2017-10-05T02:50:33.359Z,1003.49
2017-10-05T02:51:13.944Z,1003.61
2017-10-05T02:51:54.515Z,1003.51
2017-10-05T02:52:35.122Z,1003.47
2017-10-05T02:53:15.723Z,1003.43
2017-10-05T02:53:56.308Z,1003.42
2017-10-05T02:54:36.885Z,1003.42
2017-10-05T02:55:17.470Z,1003.44
2017-10-05T02:55:58.074Z,1003.43
2017-10-05T02:56:38.704Z,1003.32
2017-10-05T02:57:19.279Z,1003.35
2017-10-05T02:57:59.843Z,1003.33
2017-10-05T02:58:40.427Z,1003.33
2017-10-05T02:59:21.007Z,1003.26
2017-10-05T03:00:01.580Z,1003.2
2017-10-05T03:00:42.141Z,1003.25
2017-10-05T03:01:22.735Z,1003.16
2017-10-05T03:02:03.337Z,1003.25
2017-10-05T03:02:43.943Z,1003.23
2017-10-05T03:03:24.547Z,1003.16
2017-10-05T03:04:05.138Z,1003.22
2017-10-05T03:04:45.747Z,1003.26
2017-10-05T03:05:26.341Z,1003.26
2017-10-05T03:06:06.930Z,1003.2
2017-10-05T03:06:47.514Z,1003.16
2017-10-05T03:07:28.192Z,1003.15
2017-10-05T03:08:08.768Z,1003.13
2017-10-05T03:08:49.340Z,1003.1
2017-10-05T03:09:29.911Z,1003.11
2017-10-05T03:10:10.485Z,1003.14
2017-10-05T03:10:51.063Z,1003.1
2017-10-05T03:11:31.677Z,1003.09
2017-10-05T03:12:12.326Z,1003.01
2017-10-05T03:12:52.861Z,1003.15
2017-10-05T03:13:33.474Z,1003.06
2017-10-05T03:14:14.044Z,1003.07
2017-10-05T03:14:54.614Z,1003.03
2017-10-05T03:15:35.187Z,1003.02
2017-10-05T03:16:15.761Z,1003.01
2017-10-05T03:16:56.394Z,1003.03
2017-10-05T03:17:36.978Z,1002.98
2017-10-05T03:18:17.581Z,1003
2017-10-05T03:18:58.180Z,1002.96
2017-10-05T03:19:38.768Z,1003.02
2017-10-05T03:20:19.388Z,1003
2017-10-05T03:20:59.990Z,1003.04
2017-10-05T03:21:40.588Z,1002.97
2017-10-05T03:22:21.172Z,1002.93
2017-10-05T03:23:01.801Z,1002.88
2017-10-05T03:23:42.388Z,1002.89
2017-10-05T03:24:23.002Z,1002.92
2017-10-05T03:25:03.653Z,1002.9
2017-10-05T03:25:44.250Z,1002.86
2017-10-05T03:26:24.818Z,1002.82
2017-10-05T03:27:05.414Z,1002.79
2017-10-05T03:27:45.988Z,1002.79
2017-10-05T03:28:26.555Z,1002.74
2017-10-05T03:29:07.225Z,1002.72
2017-10-05T03:29:47.815Z,1002.7
2017-10-05T03:30:28.421Z,1002.77
2017-10-05T03:31:09.023Z,1002.73
2017-10-05T03:31:49.644Z,1002.74
2017-10-05T03:32:30.256Z,1002.73
2017-10-05T03:33:10.843Z,1002.7
2017-10-05T03:33:51.676Z,1002.7
2017-10-05T03:34:32.261Z,1002.63
2017-10-05T03:35:12.836Z,1002.66
2017-10-05T03:35:53.428Z,1002.65
2017-10-05T03:36:34.010Z,1002.67
2017-10-05T03:37:14.585Z,1002.56
2017-10-05T03:37:55.186Z,1002.54
2017-10-05T03:38:35.792Z,1002.51
2017-10-05T03:39:16.443Z,1002.5
2017-10-05T03:39:57.057Z,1002.56
2017-10-05T03:40:37.647Z,1002.53
2017-10-05T03:41:18.243Z,1002.56
2017-10-05T03:41:58.953Z,1002.58
2017-10-05T03:42:39.551Z,1002.57
2017-10-05T03:43:20.151Z,1002.54
2017-10-05T03:44:00.754Z,1002.52
2017-10-05T03:44:41.358Z,1002.46
2017-10-05T03:45:22.007Z,1002.47
2017-10-05T03:46:02.581Z,1002.49
2017-10-05T03:46:43.171Z,1002.43
2017-10-05T03:47:23.782Z,1002.43
2017-10-05T03:48:04.381Z,1002.4
2017-10-05T03:48:45.002Z,1002.41
2017-10-05T03:49:25.567Z,1002.39
2017-10-05T03:50:06.153Z,1002.39
2017-10-05T03:50:46.776Z,1002.4
2017-10-05T03:51:27.403Z,1002.4
2017-10-05T03:52:07.977Z,1002.39
2017-10-05T03:52:48.604Z,1002.34
2017-10-05T03:53:29.195Z,1002.27
2017-10-05T03:54:09.795Z,1002.21
2017-10-05T03:54:50.403Z,1002.16
2017-10-05T03:55:30.988Z,1002.19
2017-10-05T03:56:11.582Z,1002.18
2017-10-05T03:56:52.159Z,1002.15
2017-10-05T03:57:32.751Z,1002.15
2017-10-05T03:58:13.339Z,1002.11
2017-10-05T03:58:53.915Z,1002.09
2017-10-05T03:59:34.499Z,1002.04
2017-10-05T04:00:15.127Z,1002.06
2017-10-05T04:00:55.680Z,1002.07
2017-10-05T04:01:36.315Z,1002.03
2017-10-05T04:02:16.917Z,1002.05
2017-10-05T04:02:57.494Z,1002.09
2017-10-05T04:03:38.072Z,1002.02
2017-10-05T04:04:18.665Z,1002.06
2017-10-05T04:04:59.279Z,1002.02
2017-10-05T04:05:39.874Z,1002.08
2017-10-05T04:06:20.483Z,1002.01
2017-10-05T04:07:01.112Z,1002.01
2017-10-05T04:07:41.756Z,1001.97
2017-10-05T04:08:22.385Z,1001.94
2017-10-05T04:09:02.962Z,1001.92
2017-10-05T04:09:43.519Z,1001.9
2017-10-05T04:10:24.125Z,1001.93
2017-10-05T04:11:04.694Z,1001.96
2017-10-05T04:11:45.304Z,1001.98
2017-10-05T04:12:25.864Z,1001.93
2017-10-05T04:13:06.446Z,1001.93
2017-10-05T04:13:47.079Z,1001.94
2017-10-05T04:14:27.671Z,1001.94
2017-10-05T04:15:08.239Z,1001.89
2017-10-05T04:15:48.889Z,1001.96
2017-10-05T04:16:29.469Z,1001.9
2017-10-05T04:17:10.062Z,1001.85
2017-10-05T04:17:50.630Z,1001.84
2017-10-05T04:18:31.232Z,1001.84
2017-10-05T04:19:11.973Z,1001.79
2017-10-05T04:19:52.547Z,1001.81
2017-10-05T04:20:33.179Z,1001.69
2017-10-05T04:21:13.810Z,1001.77
2017-10-05T04:21:54.436Z,1001.78
2017-10-05T04:22:35.083Z,1001.81
2017-10-05T04:23:15.609Z,1001.79
2017-10-05T04:23:56.202Z,1001.77
2017-10-05T04:24:36.776Z,1001.78
2017-10-05T04:25:17.354Z,1001.78
2017-10-05T04:25:57.960Z,1001.77
2017-10-05T04:26:38.544Z,1001.76
2017-10-05T04:27:19.157Z,1001.76
2017-10-05T04:27:59.777Z,1001.78
2017-10-05T04:28:40.382Z,1001.78
2017-10-05T04:29:20.978Z,1001.77
2017-10-05T04:30:01.632Z,1001.72
2017-10-05T04:30:42.186Z,1001.73
2017-10-05T04:31:22.753Z,1001.71
2017-10-05T04:32:03.318Z,1001.72
2017-10-05T04:32:43.902Z,1001.67
2017-10-05T04:33:24.468Z,1001.7
2017-10-05T04:34:05.068Z,1001.64
2017-10-05T04:34:45.668Z,1001.68
2017-10-05T04:35:26.244Z,1001.67
2017-10-05T04:36:06.815Z,1001.68
2017-10-05T04:36:47.381Z,1001.67
2017-10-05T04:37:28.038Z,1001.67
2017-10-05T04:38:08.652Z,1001.66
2017-10-05T04:38:49.231Z,1001.69
2017-10-05T04:39:29.867Z,1001.65
2017-10-05T04:40:10.465Z,1001.61
2017-10-05T04:40:51.054Z,1001.54
2017-10-05T04:41:31.661Z,1001.55
2017-10-05T04:42:12.269Z,1001.51
2017-10-05T04:42:52.849Z,1001.48
2017-10-05T04:43:33.424Z,1001.48
2017-10-05T04:44:14.013Z,1001.43
2017-10-05T04:44:54.620Z,1001.43
2017-10-05T04:45:35.215Z,1001.38
2017-10-05T04:46:15.816Z,1001.41
2017-10-05T04:46:56.526Z,1001.4
2017-10-05T04:47:37.090Z,1001.39
2017-10-05T04:48:17.780Z,1001.36
2017-10-05T04:48:58.384Z,1001.35
2017-10-05T04:49:38.980Z,1001.35
2017-10-05T04:50:19.592Z,1001.34
2017-10-05T04:51:00.186Z,1001.35
2017-10-05T04:51:40.796Z,1001.29
2017-10-05T04:52:21.386Z,1001.27
2017-10-05T04:53:02.026Z,1001.26
2017-10-05T04:53:42.622Z,1001.26
2017-10-05T04:54:23.242Z,1001.23
2017-10-05T04:55:04.019Z,1001.2
2017-10-05T04:55:44.679Z,1001.18
2017-10-05T04:56:25.271Z,1001.16
2017-10-05T04:57:05.857Z,1001.11
2017-10-05T04:57:46.486Z,1001.11
2017-10-05T04:58:27.084Z,1001.14
2017-10-05T04:59:07.703Z,1001.14
2017-10-05T04:59:48.435Z,1001.12
2017-10-05T05:00:29.026Z,1001.12
2017-10-05T05:01:09.617Z,1001.08
2017-10-05T05:01:50.194Z,1001.04
2017-10-05T05:02:30.790Z,1001.02
2017-10-05T05:03:11.414Z,1001.01
2017-10-05T05:03:52.009Z,1000.98
2017-10-05T05:04:32.596Z,1000.97
2017-10-05T05:05:13.171Z,1000.95
2017-10-05T05:05:53.746Z,1000.88
2017-10-05T05:06:34.397Z,1000.84
2017-10-05T05:07:14.982Z,1000.84
2017-10-05T05:07:55.573Z,1000.84
2017-10-05T05:08:36.152Z,1000.76
2017-10-05T05:09:16.772Z,1000.77
2017-10-05T05:09:57.329Z,1000.81
2017-10-05T05:10:37.896Z,1000.79
2017-10-05T05:11:18.480Z,1000.77
2017-10-05T05:11:59.088Z,1000.75
2017-10-05T05:12:39.654Z,1000.77
2017-10-05T05:13:20.229Z,1000.73
2017-10-05T05:14:00.812Z,1000.72
2017-10-05T05:14:41.404Z,1000.7
2017-10-05T05:15:21.986Z,1000.68
2017-10-05T05:16:02.581Z,1000.65
2017-10-05T05:16:43.323Z,1000.65
2017-10-05T05:17:23.964Z,1000.66
2017-10-05T05:18:04.545Z,1000.61
2017-10-05T05:18:45.155Z,1000.67
2017-10-05T05:19:25.736Z,1000.63
2017-10-05T05:20:06.358Z,1000.62
2017-10-05T05:20:46.966Z,1000.57
2017-10-05T05:21:27.562Z,1000.61
2017-10-05T05:22:08.166Z,1000.58
2017-10-05T05:22:48.738Z,1000.53
2017-10-05T05:23:29.316Z,1000.51
2017-10-05T05:24:09.885Z,1000.53
2017-10-05T05:24:50.489Z,1000.52
2017-10-05T05:25:31.059Z,1000.54
2017-10-05T05:26:11.617Z,1000.5
2017-10-05T05:26:52.223Z,1000.49
2017-10-05T05:27:32.792Z,1000.5
2017-10-05T05:28:13.379Z,1000.53
2017-10-05T05:28:53.957Z,1000.5
2017-10-05T05:29:34.535Z,1000.47
2017-10-05T05:30:15.106Z,1000.55
2017-10-05T05:30:55.687Z,1000.5
2017-10-05T05:31:36.298Z,1000.5
2017-10-05T05:32:16.910Z,1000.51
2017-10-05T05:32:57.502Z,1000.46
2017-10-05T05:33:38.107Z,1000.47
2017-10-05T05:34:18.725Z,1000.48
2017-10-05T05:34:59.291Z,1000.5
2017-10-05T05:35:39.846Z,1000.49
2017-10-05T05:36:20.728Z,1000.48
2017-10-05T05:37:01.386Z,1000.49
2017-10-05T05:37:41.997Z,1000.48
2017-10-05T05:38:22.576Z,1000.46
2017-10-05T05:39:03.307Z,1000.46
2017-10-05T05:39:43.884Z,1000.4
2017-10-05T05:40:24.575Z,1000.4
2017-10-05T05:41:05.132Z,1000.39
2017-10-05T05:41:45.756Z,1000.35
2017-10-05T05:42:26.387Z,1000.37
2017-10-05T05:43:07.173Z,1000.31
2017-10-05T05:43:47.672Z,1000.27
2017-10-05T05:44:28.261Z,1000.26
2017-10-05T05:45:08.827Z,1000.21
2017-10-05T05:45:49.409Z,1000.17
2017-10-05T05:46:30.006Z,1000.2
2017-10-05T05:47:10.621Z,1000.2
2017-10-05T05:47:51.238Z,1000.17
2017-10-05T05:48:31.814Z,1000.15
2017-10-05T05:49:12.414Z,1000.16
2017-10-05T05:49:53.029Z,1000.18
2017-10-05T05:50:33.625Z,1000.16
2017-10-05T05:51:14.216Z,1000.12
2017-10-05T05:51:54.927Z,1000.07
2017-10-05T05:52:35.803Z,1000.07
2017-10-05T05:53:16.419Z,1000.02
2017-10-05T05:53:57.306Z,1000.03
2017-10-05T05:54:37.899Z,999.98
2017-10-05T05:55:18.507Z,999.96
2017-10-05T05:55:59.108Z,999.96
2017-10-05T05:56:39.759Z,999.92
2017-10-05T05:57:20.374Z,999.91
2017-10-05T05:58:00.970Z,999.86
2017-10-05T05:58:41.576Z,999.88
2017-10-05T05:59:22.219Z,999.94
2017-10-05T06:00:02.824Z,999.88
2017-10-05T06:00:43.424Z,999.9
2017-10-05T06:01:24.033Z,999.85
2017-10-05T06:02:04.604Z,999.91
2017-10-05T06:02:45.183Z,999.9
2017-10-05T06:03:25.818Z,999.85
2017-10-05T06:04:06.484Z,999.81
2017-10-05T06:04:47.078Z,999.8
2017-10-05T06:05:27.671Z,999.8
2017-10-05T06:06:08.283Z,999.79
2017-10-05T06:06:48.865Z,999.81
2017-10-05T06:07:29.454Z,999.8
2017-10-05T06:08:10.076Z,999.74
2017-10-05T06:08:50.648Z,999.74
2017-10-05T06:09:31.262Z,999.74
2017-10-05T06:10:11.834Z,999.74
2017-10-05T06:10:52.415Z,999.68
2017-10-05T06:11:32.994Z,999.67
2017-10-05T06:12:13.586Z,999.66
2017-10-05T06:12:54.169Z,999.65
2017-10-05T06:13:34.791Z,999.63
2017-10-05T06:14:15.420Z,999.64
2017-10-05T06:14:56.116Z,999.65
2017-10-05T06:15:37.029Z,999.64
2017-10-05T06:16:17.637Z,999.6
2017-10-05T06:16:58.197Z,999.57
2017-10-05T06:17:38.883Z,999.56
2017-10-05T06:18:19.462Z,999.48
2017-10-05T06:19:00.118Z,999.51
2017-10-05T06:19:40.807Z,999.47
2017-10-05T06:20:21.443Z,999.42
2017-10-05T06:21:02.049Z,999.37
2017-10-05T06:21:42.659Z,999.37
2017-10-05T06:22:23.252Z,999.32
2017-10-05T06:23:03.864Z,999.3
2017-10-05T06:23:44.468Z,999.33
2017-10-05T06:24:25.052Z,999.29
2017-10-05T06:25:05.661Z,999.22
2017-10-05T06:25:46.263Z,999.22
2017-10-05T06:26:26.864Z,999.24
2017-10-05T06:27:07.488Z,999.24
2017-10-05T06:27:48.102Z,999.24
2017-10-05T06:28:28.714Z,999.18
2017-10-05T06:29:09.324Z,999.23
2017-10-05T06:29:49.931Z,999.18
2017-10-05T06:30:30.525Z,999.19
2017-10-05T06:31:11.127Z,999.19
2017-10-05T06:31:51.732Z,999.14
2017-10-05T06:32:32.433Z,999.14
2017-10-05T06:33:13.098Z,999.13
2017-10-05T06:33:53.688Z,999.16
2017-10-05T06:34:34.298Z,999.17
2017-10-05T06:35:14.942Z,999.15
2017-10-05T06:35:55.578Z,999.22
2017-10-05T06:36:36.141Z,999.16
2017-10-05T06:37:16.716Z,999.16
2017-10-05T06:37:57.291Z,999.18
2017-10-05T06:38:38.095Z,999.17
2017-10-05T06:39:18.676Z,999.18
2017-10-05T06:39:59.276Z,999.13
2017-10-05T06:40:39.861Z,999.16
2017-10-05T06:41:20.475Z,999.15
2017-10-05T06:42:01.056Z,999.13
2017-10-05T06:42:41.654Z,999.16
2017-10-05T06:43:22.230Z,999.17
2017-10-05T06:44:02.804Z,999.19
2017-10-05T06:44:43.390Z,999.13
2017-10-05T06:45:24.000Z,999.13
2017-10-05T06:46:04.588Z,999.14
2017-10-05T06:46:45.204Z,999.08
2017-10-05T06:47:25.787Z,999.09
2017-10-05T06:48:06.346Z,999.07
2017-10-05T06:48:46.937Z,999.11
2017-10-05T06:49:27.510Z,999.04
2017-10-05T06:50:08.153Z,999.08
2017-10-05T06:50:48.794Z,999.08
2017-10-05T06:51:29.386Z,999
2017-10-05T06:52:10.031Z,999.01
2017-10-05T06:52:50.662Z,998.96
2017-10-05T06:53:31.208Z,998.97
2017-10-05T06:54:11.799Z,998.9
2017-10-05T06:54:52.414Z,998.95
2017-10-05T06:55:33.036Z,998.95
2017-10-05T06:56:13.666Z,998.93
2017-10-05T06:56:54.281Z,998.93
2017-10-05T06:57:34.874Z,998.94
2017-10-05T06:58:15.486Z,998.9
2017-10-05T06:58:56.078Z,998.93
2017-10-05T06:59:36.679Z,998.93
2017-10-05T07:00:17.288Z,998.9
2017-10-05T07:00:57.929Z,998.87
2017-10-05T07:01:38.559Z,998.89
2017-10-05T07:02:19.139Z,998.86
2017-10-05T07:02:59.741Z,998.84
2017-10-05T07:03:40.334Z,998.82
2017-10-05T07:04:20.933Z,998.87
2017-10-05T07:05:01.583Z,998.84
2017-10-05T07:05:42.386Z,998.81
2017-10-05T07:06:23.001Z,998.81
2017-10-05T07:07:03.610Z,998.81
2017-10-05T07:07:44.193Z,998.9
2017-10-05T07:08:24.785Z,998.79
2017-10-05T07:09:05.390Z,998.82
2017-10-05T07:09:45.979Z,998.73
2017-10-05T07:10:26.589Z,998.7
2017-10-05T07:11:07.190Z,998.72
2017-10-05T07:11:47.800Z,998.67
2017-10-05T07:12:28.382Z,998.68
2017-10-05T07:13:08.970Z,998.68
2017-10-05T07:13:49.556Z,998.58
2017-10-05T07:14:30.179Z,998.61
2017-10-05T07:15:10.762Z,998.59
2017-10-05T07:15:51.380Z,998.58
2017-10-05T07:16:32.005Z,998.54
2017-10-05T07:17:12.580Z,998.51
2017-10-05T07:17:53.162Z,998.53
2017-10-05T07:18:33.789Z,998.47
2017-10-05T07:19:14.343Z,998.45
2017-10-05T07:19:54.958Z,998.45
2017-10-05T07:20:35.608Z,998.39
2017-10-05T07:21:16.203Z,998.36
2017-10-05T07:21:56.774Z,998.39
2017-10-05T07:22:37.376Z,998.41
2017-10-05T07:23:17.985Z,998.37
2017-10-05T07:23:58.562Z,998.32
2017-10-05T07:24:39.138Z,998.36
2017-10-05T07:25:19.726Z,998.32
2017-10-05T07:26:00.336Z,998.31
2017-10-05T07:26:40.937Z,998.33
2017-10-05T07:27:21.534Z,998.35
2017-10-05T07:28:02.159Z,998.29
2017-10-05T07:28:42.792Z,998.26
2017-10-05T07:29:23.456Z,998.22
2017-10-05T07:30:04.041Z,998.25
2017-10-05T07:30:44.610Z,998.22
2017-10-05T07:31:25.176Z,998.26
2017-10-05T07:32:05.778Z,998.25
2017-10-05T07:32:46.358Z,998.27
2017-10-05T07:33:26.920Z,998.25
2017-10-05T07:34:07.529Z,998.2
2017-10-05T07:34:48.125Z,998.19
2017-10-05T07:35:28.733Z,998.15
2017-10-05T07:36:09.323Z,998.1
2017-10-05T07:36:49.917Z,998.07
2017-10-05T07:37:30.516Z,998.03
2017-10-05T07:38:11.110Z,998.01
2017-10-05T07:38:51.693Z,997.95
2017-10-05T07:39:32.292Z,997.99
2017-10-05T07:40:12.832Z,998.02
2017-10-05T07:40:53.451Z,997.96
2017-10-05T07:41:34.034Z,997.97
2017-10-05T07:42:14.650Z,997.94
2017-10-05T07:42:55.250Z,997.95
2017-10-05T07:43:35.861Z,997.9
2017-10-05T07:44:16.421Z,997.85
2017-10-05T07:44:57.004Z,997.87
2017-10-05T07:45:37.589Z,997.87
2017-10-05T07:46:18.219Z,997.84
2017-10-05T07:46:58.760Z,997.78
2017-10-05T07:47:39.341Z,997.75
2017-10-05T07:48:19.946Z,997.75
2017-10-05T07:49:00.560Z,997.74
2017-10-05T07:49:41.122Z,997.76
2017-10-05T07:50:21.712Z,997.78
2017-10-05T07:51:02.314Z,997.75
2017-10-05T07:51:42.901Z,997.7
2017-10-05T07:52:23.478Z,997.69
2017-10-05T07:53:04.068Z,997.67
2017-10-05T07:53:44.662Z,997.72
2017-10-05T07:54:25.242Z,997.64
2017-10-05T07:55:05.832Z,997.64
2017-10-05T07:55:46.433Z,997.61
2017-10-05T07:56:27.024Z,997.6
2017-10-05T07:57:07.656Z,997.55
2017-10-05T07:57:48.235Z,997.58
2017-10-05T07:58:29.020Z,997.47
2017-10-05T07:59:09.586Z,997.45
2017-10-05T07:59:50.173Z,997.41
2017-10-05T08:00:30.772Z,997.39
2017-10-05T08:01:11.349Z,997.37
2017-10-05T08:01:51.922Z,997.37
2017-10-05T08:02:33.378Z,997.36
2017-10-05T08:03:13.854Z,997.39
2017-10-05T08:03:54.382Z,997.34
2017-10-05T08:04:35.000Z,997.4
2017-10-05T08:05:15.868Z,997.34
2017-10-05T08:05:56.445Z,997.36
2017-10-05T08:06:37.031Z,997.31
2017-10-05T08:07:17.663Z,997.29
2017-10-05T08:07:58.268Z,997.23
2017-10-05T08:08:38.857Z,997.25
2017-10-05T08:09:19.437Z,997.23
2017-10-05T08:10:00.027Z,997.21
2017-10-05T08:10:40.673Z,997.14
2017-10-05T08:11:21.371Z,997.13
2017-10-05T08:12:01.933Z,997.02
2017-10-05T08:12:42.542Z,997.02
2017-10-05T08:13:23.162Z,996.99
2017-10-05T08:14:03.768Z,996.98
2017-10-05T08:14:44.409Z,997
2017-10-05T08:15:25.156Z,997.01
2017-10-05T08:16:05.687Z,996.99
2017-10-05T08:16:46.250Z,997.03
2017-10-05T08:17:26.848Z,996.99
2017-10-05T08:18:07.435Z,997.05
2017-10-05T08:18:48.049Z,997.04